Skip Navigation LinksHome page > Weather > Current weather Skip Navigation Links

Current Weather

Odiham, United Kingdom

For information only: do not use for flight planning or navigation.
Latest weather
Observation time Monday, November 29, 2021 8:26 PM GMT
Local time Monday, November 29, 2021 8:37 PM GMT
Flight conditions Marginal Visual Meteorological Conditions
Winds
Wind direction Southwest (220°)
Wind speed 12 mph
Visibility 6.2 mi.
Sky condition
Ceiling 1,300 ft. broken clouds
Cloud layer few clouds 1,300 ft.
Cloud layer broken clouds 2,100 ft.
Cloud layer broken clouds 3,000 ft.
Temperature 39°F
Dewpoint 34°F
Altimeter 29.97 in.Hg
Derived measurements
Relative humidity 81%
Wind chill 32°F
Density altitude -1172 ft.
Remarks
Temporarily.
METAR EGVO 292026Z 22010KT 9999 FEW013 BKN021 BKN030 04/01 Q1015 TEMPO BKN013 RMK WHT TEMPO GRN

Settings

Location code

InnerDrive.Weather 4.0.6770.0 Release CLR 4.0.30319.42000
Copyright ©2018 Inner Drive Technology. All rights reserved. Portions Copyright ©1986-2018 David Braverman.

Find weather

Site navigation


Skip Navigation Links

Place info

Page info

PayPal - The safer, easier way to pay online!

Return home.

Copyright ©2021 Inner Drive Technology. Purveyors of fine, hand-crafted computer software. Page printed 2021-11-29T20:37:53 UTC.